PWSweather.com
Personal Weather Stations
Station Observations
728536
Kristiansand, FlekkeroyNO 4625

KristiansandFlekkeroyNO 4625

Lat: 58.0860587, Lon: 8.0151742

Elevation: 36

Station Type: Davis Vantage Pro2

http://www.paulen.no

Latest ConditionsUpdated 5:50:01 PM GMT+01:01 Sunday, Jan 26, 2020
Currently Today's Max Today's Min Today's Average
Temperature 44.3°F6.8°C 44.9°F7.2°C 43.1°F6.2°C 44.2°F6.8°C
Dew Point 43.2°F6.2°C 43.6°F6.4°C 40.4°F4.7°C 42.4°F5.8°C
Winds 11.5 mph NNE18.5 kmh NNE 15.0 mph -24.1 kmh - - 7.8 mph 12.6 kmh
Wind Gusts 16.1 mph25.9 kmh 25.3 mph40.7 kmh - -
Humidity 96% 97% 86% 93%
Pressure 29.71 in1006.1 mb 29.82 in1009.8 mb 29.71 in1006.1 mb -
Precipitation - 0.04 in1.0 mm - -
Hour Temp Dew Point Humidity Winds Wind Gusts Pressure Precip Precip Rate Daily Precip Total
05:50 PM 44.3°F6.8°C 43.2°F6.2°C 96% 11.5 mph NNE18.5 kmh NNE 16.1 mph25.9 kmh 29.71 in1006.1 mb - 0.00 in0.0 mm 0.04 in1.0 mm
05:40 PM 44.3°F6.8°C 43.2°F6.2°C 96% 10.4 mph NNW16.7 kmh NNW 13.8 mph22.2 kmh 29.72 in1006.4 mb - 0.00 in0.0 mm 0.04 in1.0 mm
05:30 PM 44.3°F6.8°C 43.2°F6.2°C 96% 11.5 mph NE18.5 kmh NE 19.6 mph31.5 kmh 29.71 in1006.1 mb - 0.00 in0.0 mm 0.04 in1.0 mm
05:20 PM 44.4°F6.9°C 43.3°F6.3°C 96% 11.5 mph NNE18.5 kmh NNE 13.8 mph22.2 kmh 29.72 in1006.4 mb - 0.00 in0.0 mm 0.04 in1.0 mm
05:10 PM 44.4°F6.9°C 43.6°F6.4°C 97% 10.4 mph WNW16.7 kmh WNW 16.1 mph25.9 kmh 29.72 in1006.4 mb - 0.00 in0.0 mm 0.04 in1.0 mm
05:00 PM 44.3°F6.8°C 43.5°F6.4°C 97% 8.1 mph N13.0 kmh N 11.5 mph18.5 kmh 29.72 in1006.4 mb - 0.01 in0.3 mm 0.04 in1.0 mm
04:50 PM 44.3°F6.8°C 43.5°F6.4°C 97% 9.2 mph NNE14.8 kmh NNE 16.1 mph25.9 kmh 29.72 in1006.4 mb - 0.01 in0.3 mm 0.04 in1.0 mm
04:40 PM 44.3°F6.8°C 43.5°F6.4°C 97% 9.2 mph N14.8 kmh N 13.8 mph22.2 kmh 29.73 in1006.8 mb - 0.01 in0.3 mm 0.04 in1.0 mm
04:30 PM 44.2°F6.8°C 43.4°F6.3°C 97% 12.7 mph NE20.4 kmh NE 24.2 mph38.9 kmh 29.73 in1006.8 mb - 0.01 in0.3 mm 0.04 in1.0 mm
04:20 PM 44.2°F6.8°C 43.4°F6.3°C 97% 10.4 mph NW16.7 kmh NW 17.3 mph27.8 kmh 29.73 in1006.8 mb - 0.01 in0.3 mm 0.04 in1.0 mm
04:10 PM 44.2°F6.8°C 43.1°F6.2°C 96% 11.5 mph N18.5 kmh N 17.3 mph27.8 kmh 29.73 in1006.8 mb - 0.01 in0.3 mm 0.04 in1.0 mm
04:00 PM 44.3°F6.8°C 43.2°F6.2°C 96% 11.5 mph NNE18.5 kmh NNE 16.1 mph25.9 kmh 29.73 in1006.8 mb - 0.00 in0.0 mm 0.03 in0.8 mm
03:50 PM 44.3°F6.8°C 43.2°F6.2°C 96% 8.1 mph N13.0 kmh N 15.0 mph24.1 kmh 29.74 in1007.1 mb - 0.00 in0.0 mm 0.03 in0.8 mm
03:40 PM 44.3°F6.8°C 43.2°F6.2°C 96% 11.5 mph NNW18.5 kmh NNW 16.1 mph25.9 kmh 29.74 in1007.1 mb - 0.00 in0.0 mm 0.03 in0.8 mm
03:30 PM 44.3°F6.8°C 43.3°F6.3°C 96% 9.2 mph NNE14.8 kmh NNE 10.4 mph16.7 kmh 29.74 in1007.1 mb - 0.00 in0.0 mm 0.03 in0.8 mm
03:20 PM 44.3°F6.8°C 43.0°F6.1°C 95% 11.5 mph NNE18.5 kmh NNE 15.0 mph24.1 kmh 29.74 in1007.1 mb - 0.00 in0.0 mm 0.03 in0.8 mm
03:10 PM 44.4°F6.9°C 43.1°F6.2°C 95% 13.8 mph NE22.2 kmh NE 20.7 mph33.3 kmh 29.74 in1007.1 mb - 0.01 in0.3 mm 0.03 in0.8 mm
03:00 PM 44.4°F6.9°C 43.1°F6.2°C 95% 10.4 mph NNW16.7 kmh NNW 13.8 mph22.2 kmh 29.75 in1007.5 mb - 0.01 in0.3 mm 0.03 in0.8 mm
02:50 PM 44.4°F6.9°C 43.1°F6.2°C 95% 10.4 mph NE16.7 kmh NE 13.8 mph22.2 kmh 29.75 in1007.5 mb - 0.01 in0.3 mm 0.03 in0.8 mm
02:40 PM 44.5°F6.9°C 43.2°F6.2°C 95% 15.0 mph NNE24.1 kmh NNE 25.3 mph40.7 kmh 29.75 in1007.5 mb - 0.01 in0.3 mm 0.03 in0.8 mm
02:30 PM 44.4°F6.9°C 43.1°F6.2°C 95% 11.5 mph NNE18.5 kmh NNE 18.4 mph29.6 kmh 29.75 in1007.5 mb - 0.01 in0.3 mm 0.03 in0.8 mm
02:20 PM 44.4°F6.9°C 43.0°F6.1°C 95% 12.7 mph NNE20.4 kmh NNE 19.6 mph31.5 kmh 29.75 in1007.5 mb - 0.01 in0.3 mm 0.03 in0.8 mm
02:10 PM 44.4°F6.9°C 43.1°F6.2°C 95% 9.2 mph N14.8 kmh N 18.4 mph29.6 kmh 29.76 in1007.8 mb - 0.00 in0.0 mm 0.02 in0.5 mm
02:00 PM 44.3°F6.8°C 43.0°F6.1°C 95% 8.1 mph N13.0 kmh N 16.1 mph25.9 kmh 29.76 in1007.8 mb - 0.00 in0.0 mm 0.02 in0.5 mm
01:50 PM 44.3°F6.8°C 43.2°F6.2°C 96% 9.2 mph N14.8 kmh N 11.5 mph18.5 kmh 29.77 in1008.1 mb - 0.00 in0.0 mm 0.02 in0.5 mm
01:40 PM 44.3°F6.8°C 43.0°F6.1°C 95% 6.9 mph N11.1 kmh N 13.8 mph22.2 kmh 29.77 in1008.1 mb - 0.00 in0.0 mm 0.02 in0.5 mm
01:30 PM 44.2°F6.8°C 43.1°F6.2°C 96% 13.8 mph NE22.2 kmh NE 18.4 mph29.6 kmh 29.77 in1008.1 mb - 0.00 in0.0 mm 0.02 in0.5 mm
01:20 PM 44.3°F6.8°C 43.2°F6.2°C 96% 12.7 mph NNE20.4 kmh NNE 15.0 mph24.1 kmh 29.77 in1008.1 mb - 0.00 in0.0 mm 0.02 in0.5 mm
01:10 PM 44.6°F7.0°C 43.2°F6.2°C 95% 12.7 mph NE20.4 kmh NE 18.4 mph29.6 kmh 29.77 in1008.1 mb - 0.00 in0.0 mm 0.02 in0.5 mm
01:00 PM 44.6°F7.0°C 43.0°F6.1°C 94% 10.4 mph NNE16.7 kmh NNE 11.5 mph18.5 kmh 29.78 in1008.5 mb - 0.00 in0.0 mm 0.02 in0.5 mm
12:50 PM 44.7°F7.1°C 43.0°F6.1°C 94% 10.4 mph NNE16.7 kmh NNE 15.0 mph24.1 kmh 29.78 in1008.5 mb - 0.00 in0.0 mm 0.02 in0.5 mm
12:40 PM 44.9°F7.2°C 43.0°F6.1°C 93% 6.9 mph NNE11.1 kmh NNE 11.5 mph18.5 kmh 29.78 in1008.5 mb - 0.00 in0.0 mm 0.02 in0.5 mm
12:30 PM 44.9°F7.2°C 43.0°F6.1°C 93% 10.4 mph NNE16.7 kmh NNE 15.0 mph24.1 kmh 29.79 in1008.8 mb - 0.00 in0.0 mm 0.02 in0.5 mm
12:20 PM 44.9°F7.2°C 43.0°F6.1°C 93% 9.2 mph N14.8 kmh N 12.7 mph20.4 kmh 29.79 in1008.8 mb - 0.00 in0.0 mm 0.02 in0.5 mm
12:10 PM 44.9°F7.2°C 43.0°F6.1°C 93% 10.4 mph NNE16.7 kmh NNE 15.0 mph24.1 kmh 29.79 in1008.8 mb - 0.00 in0.0 mm 0.02 in0.5 mm
12:00 PM 44.9°F7.2°C 43.0°F6.1°C 93% 12.7 mph NNE20.4 kmh NNE 23.0 mph37.0 kmh 29.79 in1008.8 mb - 0.01 in0.3 mm 0.02 in0.5 mm
11:50 AM 44.9°F7.2°C 43.0°F6.1°C 93% 9.2 mph NNE14.8 kmh NNE 17.3 mph27.8 kmh 29.79 in1008.8 mb - 0.01 in0.3 mm 0.02 in0.5 mm
11:40 AM 44.9°F7.2°C 43.0°F6.1°C 93% 9.2 mph NNE14.8 kmh NNE 11.5 mph18.5 kmh 29.80 in1009.1 mb - 0.01 in0.3 mm 0.02 in0.5 mm
11:30 AM 44.8°F7.1°C 43.2°F6.2°C 94% 8.1 mph NNE13.0 kmh NNE 15.0 mph24.1 kmh 29.80 in1009.1 mb - 0.01 in0.3 mm 0.02 in0.5 mm
11:20 AM 44.6°F7.0°C 43.0°F6.1°C 94% 9.2 mph N14.8 kmh N 11.5 mph18.5 kmh 29.80 in1009.1 mb - 0.01 in0.3 mm 0.02 in0.5 mm
11:10 AM 44.6°F7.0°C 43.0°F6.1°C 94% 4.6 mph NW7.4 kmh NW 8.1 mph13.0 kmh 29.80 in1009.1 mb - 0.01 in0.3 mm 0.02 in0.5 mm
11:00 AM 44.5°F6.9°C 42.9°F6.1°C 94% 6.9 mph NNW11.1 kmh NNW 11.5 mph18.5 kmh 29.80 in1009.1 mb - 0.01 in0.3 mm 0.02 in0.5 mm
10:50 AM 44.7°F7.1°C 43.0°F6.1°C 94% 8.1 mph NNE13.0 kmh NNE 12.7 mph20.4 kmh 29.80 in1009.1 mb - 0.01 in0.3 mm 0.02 in0.5 mm
10:40 AM 44.5°F6.9°C 42.6°F5.9°C 93% 5.8 mph N9.3 kmh N 9.2 mph14.8 kmh 29.80 in1009.1 mb - 0.01 in0.3 mm 0.02 in0.5 mm
10:30 AM 44.1°F6.7°C 42.5°F5.8°C 94% 8.1 mph N13.0 kmh N 19.6 mph31.5 kmh 29.80 in1009.1 mb - 0.01 in0.3 mm 0.02 in0.5 mm
10:20 AM 43.1°F6.2°C 40.6°F4.8°C 91% 2.3 mph WNW3.7 kmh WNW 3.5 mph5.6 kmh 29.80 in1009.1 mb - 0.01 in0.3 mm 0.02 in0.5 mm
10:10 AM 43.1°F6.2°C 40.4°F4.7°C 90% 3.5 mph N5.6 kmh N 5.8 mph9.3 kmh 29.81 in1009.5 mb - 0.01 in0.3 mm 0.02 in0.5 mm
10:00 AM 43.4°F6.3°C 40.4°F4.7°C 89% 3.5 mph NW5.6 kmh NW 3.5 mph5.6 kmh 29.81 in1009.5 mb - 0.00 in0.0 mm 0.01 in0.3 mm
09:50 AM 43.5°F6.4°C 40.8°F4.9°C 90% 2.3 mph WNW3.7 kmh WNW 4.6 mph7.4 kmh 29.81 in1009.5 mb - 0.00 in0.0 mm 0.01 in0.3 mm
09:40 AM 43.4°F6.3°C 40.6°F4.8°C 90% 3.5 mph NW5.6 kmh NW 3.5 mph5.6 kmh 29.81 in1009.5 mb - 0.00 in0.0 mm 0.01 in0.3 mm
09:30 AM 43.4°F6.3°C 40.7°F4.8°C 90% 5.8 mph NNE9.3 kmh NNE 12.7 mph20.4 kmh 29.80 in1009.1 mb - 0.00 in0.0 mm 0.01 in0.3 mm
09:20 AM 43.7°F6.5°C 40.9°F4.9°C 90% 5.8 mph NNE9.3 kmh NNE 9.2 mph14.8 kmh 29.80 in1009.1 mb - 0.00 in0.0 mm 0.01 in0.3 mm
09:10 AM 43.9°F6.6°C 40.9°F4.9°C 89% 8.1 mph N13.0 kmh N 12.7 mph20.4 kmh 29.80 in1009.1 mb - 0.00 in0.0 mm 0.01 in0.3 mm
09:00 AM 44.4°F6.9°C 41.1°F5.1°C 88% 10.4 mph NE16.7 kmh NE 20.7 mph33.3 kmh 29.80 in1009.1 mb - 0.00 in0.0 mm 0.01 in0.3 mm
08:50 AM 44.6°F7.0°C 41.0°F5.0°C 87% 10.4 mph NNW16.7 kmh NNW 16.1 mph25.9 kmh 29.80 in1009.1 mb - 0.00 in0.0 mm 0.01 in0.3 mm
08:40 AM 44.4°F6.9°C 41.1°F5.1°C 88% 5.8 mph N9.3 kmh N 13.8 mph22.2 kmh 29.80 in1009.1 mb - 0.00 in0.0 mm 0.01 in0.3 mm
08:30 AM 44.3°F6.8°C 40.7°F4.8°C 87% 5.8 mph NW9.3 kmh NW 6.9 mph11.1 kmh 29.80 in1009.1 mb - 0.00 in0.0 mm 0.01 in0.3 mm
08:10 AM 44.4°F6.9°C 40.5°F4.7°C 86% 3.5 mph NNW5.6 kmh NNW 5.8 mph9.3 kmh 29.80 in1009.1 mb - 0.00 in0.0 mm 0.01 in0.3 mm
07:50 AM 44.4°F6.9°C 41.1°F5.1°C 88% 9.2 mph W14.8 kmh W 11.5 mph18.5 kmh 29.79 in1008.8 mb - 0.00 in0.0 mm 0.01 in0.3 mm
07:30 AM 44.4°F6.9°C 41.3°F5.2°C 89% 9.2 mph N14.8 kmh N 13.8 mph22.2 kmh 29.79 in1008.8 mb - 0.00 in0.0 mm 0.01 in0.3 mm
07:20 AM 44.4°F6.9°C 41.4°F5.2°C 89% 8.1 mph NNE13.0 kmh NNE 12.7 mph20.4 kmh 29.79 in1008.8 mb - 0.00 in0.0 mm 0.01 in0.3 mm
07:10 AM 44.3°F6.8°C 41.0°F5.0°C 88% 10.4 mph N16.7 kmh N 15.0 mph24.1 kmh 29.79 in1008.8 mb - 0.00 in0.0 mm 0.01 in0.3 mm
07:00 AM 44.2°F6.8°C 41.2°F5.1°C 89% 8.1 mph NNE13.0 kmh NNE 5.8 mph9.3 kmh 29.79 in1008.8 mb - 0.00 in0.0 mm 0.01 in0.3 mm
06:50 AM 44.2°F6.8°C 41.5°F5.3°C 90% 6.9 mph NW11.1 kmh NW 5.8 mph9.3 kmh 29.79 in1008.8 mb - 0.00 in0.0 mm 0.01 in0.3 mm
06:40 AM 44.2°F6.8°C 41.8°F5.4°C 91% 8.1 mph N13.0 kmh N 12.7 mph20.4 kmh 29.79 in1008.8 mb - 0.00 in0.0 mm 0.01 in0.3 mm
06:30 AM 44.4°F6.9°C 41.7°F5.4°C 90% 5.8 mph WNW9.3 kmh WNW 3.5 mph5.6 kmh 29.79 in1008.8 mb - 0.00 in0.0 mm 0.01 in0.3 mm
06:20 AM 44.4°F6.9°C 41.7°F5.4°C 90% 11.5 mph NE18.5 kmh NE 16.1 mph25.9 kmh 29.79 in1008.8 mb - 0.00 in0.0 mm 0.01 in0.3 mm
06:10 AM 44.1°F6.7°C 41.6°F5.3°C 91% 8.1 mph W13.0 kmh W 9.2 mph14.8 kmh 29.79 in1008.8 mb - 0.00 in0.0 mm 0.01 in0.3 mm
06:00 AM 44.1°F6.7°C 42.2°F5.7°C 93% 3.5 mph N5.6 kmh N 11.5 mph18.5 kmh 29.80 in1009.1 mb - 0.00 in0.0 mm 0.01 in0.3 mm
05:50 AM 44.1°F6.7°C 41.9°F5.5°C 92% 4.6 mph NNW7.4 kmh NNW 10.4 mph16.7 kmh 29.80 in1009.1 mb - 0.00 in0.0 mm 0.01 in0.3 mm
05:30 AM 44.4°F6.9°C 42.2°F5.7°C 92% 6.9 mph NNE11.1 kmh NNE 10.4 mph16.7 kmh 29.79 in1008.8 mb - 0.00 in0.0 mm 0.01 in0.3 mm
05:20 AM 44.5°F6.9°C 42.3°F5.7°C 92% 8.1 mph W13.0 kmh W 10.4 mph16.7 kmh 29.79 in1008.8 mb - 0.00 in0.0 mm 0.01 in0.3 mm
05:10 AM 44.5°F6.9°C 42.3°F5.7°C 92% 6.9 mph NW11.1 kmh NW 8.1 mph13.0 kmh 29.79 in1008.8 mb - 0.00 in0.0 mm 0.01 in0.3 mm
05:00 AM 44.4°F6.9°C 42.2°F5.7°C 92% 5.8 mph NW9.3 kmh NW 13.8 mph22.2 kmh 29.79 in1008.8 mb - 0.00 in0.0 mm 0.01 in0.3 mm
04:50 AM 44.4°F6.9°C 42.0°F5.6°C 91% 8.1 mph NNW13.0 kmh NNW 10.4 mph16.7 kmh 29.79 in1008.8 mb - 0.00 in0.0 mm 0.01 in0.3 mm
04:40 AM 44.4°F6.9°C 42.2°F5.7°C 92% 2.3 mph NE3.7 kmh NE 8.1 mph13.0 kmh 29.79 in1008.8 mb - 0.00 in0.0 mm 0.01 in0.3 mm
04:30 AM 44.4°F6.9°C 42.2°F5.7°C 92% 4.6 mph NW7.4 kmh NW 6.9 mph11.1 kmh 29.79 in1008.8 mb - 0.00 in0.0 mm 0.01 in0.3 mm
04:20 AM 44.5°F6.9°C 42.3°F5.7°C 92% 10.4 mph NNW16.7 kmh NNW 12.7 mph20.4 kmh 29.79 in1008.8 mb - 0.00 in0.0 mm 0.01 in0.3 mm
04:10 AM 44.8°F7.1°C 42.3°F5.7°C 91% 8.1 mph N13.0 kmh N 11.5 mph18.5 kmh 29.79 in1008.8 mb - 0.00 in0.0 mm 0.01 in0.3 mm
04:00 AM 44.7°F7.1°C 42.2°F5.7°C 91% 10.4 mph NE16.7 kmh NE 11.5 mph18.5 kmh 29.79 in1008.8 mb - 0.00 in0.0 mm 0.01 in0.3 mm
03:50 AM 44.6°F7.0°C 42.4°F5.8°C 92% 2.3 mph W3.7 kmh W 3.5 mph5.6 kmh 29.79 in1008.8 mb - 0.00 in0.0 mm 0.01 in0.3 mm
03:40 AM 44.5°F6.9°C 42.3°F5.7°C 92% 3.5 mph WNW5.6 kmh WNW 4.6 mph7.4 kmh 29.80 in1009.1 mb - 0.00 in0.0 mm 0.01 in0.3 mm
03:30 AM 44.4°F6.9°C 42.2°F5.7°C 92% 2.3 mph W3.7 kmh W 4.6 mph7.4 kmh 29.80 in1009.1 mb - 0.00 in0.0 mm 0.01 in0.3 mm
03:20 AM 44.3°F6.8°C 42.4°F5.8°C 93% 3.5 mph NNE5.6 kmh NNE 11.5 mph18.5 kmh 29.80 in1009.1 mb - 0.00 in0.0 mm 0.01 in0.3 mm
03:10 AM 44.2°F6.8°C 42.3°F5.7°C 93% 2.3 mph WNW3.7 kmh WNW 3.5 mph5.6 kmh 29.80 in1009.1 mb - 0.00 in0.0 mm 0.01 in0.3 mm
03:00 AM 44.0°F6.7°C 42.4°F5.8°C 94% 3.5 mph WNW5.6 kmh WNW 4.6 mph7.4 kmh 29.80 in1009.1 mb - 0.00 in0.0 mm 0.01 in0.3 mm
02:40 AM 43.8°F6.6°C 42.7°F5.9°C 96% 6.9 mph NNE11.1 kmh NNE 4.6 mph7.4 kmh 29.79 in1008.8 mb - 0.00 in0.0 mm 0.01 in0.3 mm
02:30 AM 43.6°F6.4°C 42.5°F5.8°C 96% 3.5 mph W5.6 kmh W 6.9 mph11.1 kmh 29.80 in1009.1 mb - 0.00 in0.0 mm 0.01 in0.3 mm
02:10 AM 43.2°F6.2°C 42.1°F5.6°C 96% 4.6 mph NNE7.4 kmh NNE 6.9 mph11.1 kmh 29.81 in1009.5 mb - 0.00 in0.0 mm 0.01 in0.3 mm
02:00 AM 43.4°F6.3°C 42.3°F5.7°C 96% 2.3 mph NNE3.7 kmh NNE 2.3 mph3.7 kmh 29.80 in1009.1 mb - 0.00 in0.0 mm 0.01 in0.3 mm
01:50 AM 43.5°F6.4°C 42.4°F5.8°C 96% 4.6 mph W7.4 kmh W 15.0 mph24.1 kmh 29.81 in1009.5 mb - 0.00 in0.0 mm 0.01 in0.3 mm
01:40 AM 43.7°F6.5°C 42.7°F5.9°C 96% 8.1 mph NW13.0 kmh NW 16.1 mph25.9 kmh 29.81 in1009.5 mb - 0.00 in0.0 mm 0.01 in0.3 mm
01:30 AM 43.8°F6.6°C 42.7°F5.9°C 96% 8.1 mph WNW13.0 kmh WNW 9.2 mph14.8 kmh 29.81 in1009.5 mb - 0.00 in0.0 mm 0.01 in0.3 mm
01:20 AM 43.7°F6.5°C 42.6°F5.9°C 96% 10.4 mph N16.7 kmh N 18.4 mph29.6 kmh 29.81 in1009.5 mb - 0.00 in0.0 mm 0.01 in0.3 mm
01:10 AM 43.6°F6.4°C 42.6°F5.9°C 96% 5.8 mph NW9.3 kmh NW 9.2 mph14.8 kmh 29.81 in1009.5 mb - 0.00 in0.0 mm 0.01 in0.3 mm
01:00 AM 43.6°F6.4°C 42.5°F5.8°C 96% 6.9 mph WNW11.1 kmh WNW 10.4 mph16.7 kmh 29.81 in1009.5 mb - 0.01 in0.3 mm 0.01 in0.3 mm
12:50 AM 43.8°F6.6°C 42.7°F5.9°C 96% 5.8 mph NNE9.3 kmh NNE 8.1 mph13.0 kmh 29.81 in1009.5 mb - 0.01 in0.3 mm 0.01 in0.3 mm
12:40 AM 43.9°F6.6°C 42.9°F6.1°C 96% 5.8 mph W9.3 kmh W 4.6 mph7.4 kmh 29.81 in1009.5 mb - 0.01 in0.3 mm 0.01 in0.3 mm
12:30 AM 44.0°F6.7°C 42.9°F6.1°C 96% 1.2 mph WNW1.9 kmh WNW 8.1 mph13.0 kmh 29.81 in1009.5 mb - 0.01 in0.3 mm 0.01 in0.3 mm
12:20 AM 43.8°F6.6°C 42.8°F6.0°C 96% 8.1 mph W13.0 kmh W 19.6 mph31.5 kmh 29.81 in1009.5 mb - 0.01 in0.3 mm 0.01 in0.3 mm
12:10 AM 43.9°F6.6°C 42.8°F6.0°C 96% 4.6 mph WNW7.4 kmh WNW 5.8 mph9.3 kmh 29.81 in1009.5 mb - 0.01 in0.3 mm 0.01 in0.3 mm
12:00 AM 43.8°F6.6°C 42.7°F5.9°C 96% 5.8 mph NNW9.3 kmh NNW 9.2 mph14.8 kmh 29.82 in1009.8 mb - 0.00 in0.0 mm 0.00 in0.0 mm